Terminal Aerodrome Forecast
Issued by NWS Houston/Galveston TX

Home | Current Version | Previous Version | Text Only | Print | Product List | Glossary On
Versions: 1 2 3 4 5 6 7 8 9 10 11 12 13 14 15 16 17 18 19 20 21 22 23 24 25 26 27
000
FTUS44 KHGX 040910 AAA
TAFHOU
TAF AMD
KHOU 040910Z 0409/0506 02011KT 4SM -SHRA BR OVC004
     FM041000 36009KT 6SM BR OVC006
     FM041230 35008KT 4SM -SHRA BR OVC009
     FM041800 01009KT 6SM BR VCSH OVC012
     FM050000 01009KT 4SM -SHRA BR OVC007
     FM050500 03011KT 5SM -TSRA BR OVC005CB=

USA.gov is the U.S. government's official web portal to all federal, state and local government web resources and services.